sensor_id;sensor_type;location;lat;lon;timestamp;P1;durP1;ratioP1;P2;durP2;ratioP2
14272;SDS011;7220;49.450;11.052;2022-08-01T00:03:47;3.65;;;3.28;;
14272;SDS011;7220;49.450;11.052;2022-08-01T00:07:47;3.55;;;3.25;;
14272;SDS011;7220;49.450;11.052;2022-08-01T00:11:48;3.55;;;3.25;;
14272;SDS011;7220;49.450;11.052;2022-08-01T00:15:48;3.78;;;3.47;;
14272;SDS011;7220;49.450;11.052;2022-08-01T00:19:49;3.78;;;3.35;;
14272;SDS011;7220;49.450;11.052;2022-08-01T00:23:49;3.40;;;3.10;;
14272;SDS011;7220;49.450;11.052;2022-08-01T00:27:50;3.45;;;3.00;;
14272;SDS011;7220;49.450;11.052;2022-08-01T00:31:50;3.65;;;3.25;;
14272;SDS011;7220;49.450;11.052;2022-08-01T00:35:50;3.33;;;3.08;;
14272;SDS011;7220;49.450;11.052;2022-08-01T00:39:51;4.05;;;3.67;;
14272;SDS011;7220;49.450;11.052;2022-08-01T00:43:52;3.00;;;2.80;;
14272;SDS011;7220;49.450;11.052;2022-08-01T00:47:52;3.67;;;3.25;;
14272;SDS011;7220;49.450;11.052;2022-08-01T00:51:53;4.10;;;3.40;;
14272;SDS011;7220;49.450;11.052;2022-08-01T00:55:54;4.40;;;3.50;;
14272;SDS011;7220;49.450;11.052;2022-08-01T00:59:55;3.38;;;3.17;;
14272;SDS011;7220;49.450;11.052;2022-08-01T01:03:56;3.70;;;3.00;;
14272;SDS011;7220;49.450;11.052;2022-08-01T01:07:59;3.67;;;3.22;;
14272;SDS011;7220;49.450;11.052;2022-08-01T01:16:06;4.88;;;3.22;;
14272;SDS011;7220;49.450;11.052;2022-08-01T01:20:12;4.10;;;3.67;;
14272;SDS011;7220;49.450;11.052;2022-08-01T01:24:19;2.95;;;2.75;;
14272;SDS011;7220;49.450;11.052;2022-08-01T01:28:33;3.35;;;3.15;;
14272;SDS011;7220;49.450;11.052;2022-08-01T01:32:42;3.72;;;3.40;;
14272;SDS011;7220;49.450;11.052;2022-08-01T01:36:48;4.00;;;3.70;;
14272;SDS011;7220;49.450;11.052;2022-08-01T01:40:52;3.85;;;3.42;;
14272;SDS011;7220;49.450;11.052;2022-08-01T01:44:56;4.03;;;3.42;;
14272;SDS011;7220;49.450;11.052;2022-08-01T01:48:57;3.92;;;3.20;;
14272;SDS011;7220;49.450;11.052;2022-08-01T01:52:58;3.75;;;3.28;;
14272;SDS011;7220;49.450;11.052;2022-08-01T01:57:02;3.88;;;3.40;;
14272;SDS011;7220;49.450;11.052;2022-08-01T02:01:05;4.25;;;3.20;;
14272;SDS011;7220;49.450;11.052;2022-08-01T02:05:10;3.28;;;3.08;;
14272;SDS011;7220;49.450;11.052;2022-08-01T02:09:11;3.40;;;3.10;;
14272;SDS011;7220;49.450;11.052;2022-08-01T02:13:16;4.57;;;3.38;;
14272;SDS011;7220;49.450;11.052;2022-08-01T02:17:17;6.93;;;3.65;;
14272;SDS011;7220;49.450;11.052;2022-08-01T02:21:44;3.10;;;2.90;;
14272;SDS011;7220;49.450;11.052;2022-08-01T02:25:45;3.45;;;3.15;;
14272;SDS011;7220;49.450;11.052;2022-08-01T02:29:59;5.68;;;3.08;;
14272;SDS011;7220;49.450;11.052;2022-08-01T02:34:05;3.20;;;2.90;;
14272;SDS011;7220;49.450;11.052;2022-08-01T02:38:09;3.10;;;2.90;;
14272;SDS011;7220;49.450;11.052;2022-08-01T02:42:12;3.88;;;2.80;;
14272;SDS011;7220;49.450;11.052;2022-08-01T02:46:37;4.53;;;3.33;;
14272;SDS011;7220;49.450;11.052;2022-08-01T02:50:42;3.97;;;3.22;;
14272;SDS011;7220;49.450;11.052;2022-08-01T02:54:48;4.15;;;3.60;;
14272;SDS011;7220;49.450;11.052;2022-08-01T02:58:51;3.42;;;2.78;;
14272;SDS011;7220;49.450;11.052;2022-08-01T03:02:53;3.85;;;3.45;;
14272;SDS011;7220;49.450;11.052;2022-08-01T03:06:55;3.55;;;2.90;;
14272;SDS011;7220;49.450;11.052;2022-08-01T03:10:58;3.38;;;3.10;;
14272;SDS011;7220;49.450;11.052;2022-08-01T03:15:02;3.33;;;3.00;;
14272;SDS011;7220;49.450;11.052;2022-08-01T03:19:05;3.10;;;2.90;;
14272;SDS011;7220;49.450;11.052;2022-08-01T03:23:08;6.75;;;3.00;;
14272;SDS011;7220;49.450;11.052;2022-08-01T03:27:11;3.97;;;2.95;;
14272;SDS011;7220;49.450;11.052;2022-08-01T03:31:14;3.47;;;2.80;;
14272;SDS011;7220;49.450;11.052;2022-08-01T03:35:16;3.63;;;3.33;;
14272;SDS011;7220;49.450;11.052;2022-08-01T03:39:17;4.50;;;3.05;;
14272;SDS011;7220;49.450;11.052;2022-08-01T03:43:24;3.40;;;2.80;;
14272;SDS011;7220;49.450;11.052;2022-08-01T03:47:32;3.33;;;3.03;;
14272;SDS011;7220;49.450;11.052;2022-08-01T03:51:35;4.95;;;3.13;;
14272;SDS011;7220;49.450;11.052;2022-08-01T03:55:38;3.38;;;3.08;;
14272;SDS011;7220;49.450;11.052;2022-08-01T03:59:41;4.55;;;3.08;;
14272;SDS011;7220;49.450;11.052;2022-08-01T04:03:43;3.40;;;3.10;;
14272;SDS011;7220;49.450;11.052;2022-08-01T04:07:45;5.18;;;3.03;;
14272;SDS011;7220;49.450;11.052;2022-08-01T04:11:55;4.55;;;3.25;;
14272;SDS011;7220;49.450;11.052;2022-08-01T04:15:56;2.97;;;2.67;;
14272;SDS011;7220;49.450;11.052;2022-08-01T04:19:56;3.35;;;3.05;;
14272;SDS011;7220;49.450;11.052;2022-08-01T04:24:02;4.00;;;3.28;;
14272;SDS011;7220;49.450;11.052;2022-08-01T04:28:09;3.50;;;3.20;;
14272;SDS011;7220;49.450;11.052;2022-08-01T04:32:16;6.90;;;3.40;;
14272;SDS011;7220;49.450;11.052;2022-08-01T04:36:21;5.88;;;2.65;;
14272;SDS011;7220;49.450;11.052;2022-08-01T04:40:24;4.18;;;3.10;;
14272;SDS011;7220;49.450;11.052;2022-08-01T04:44:26;3.35;;;3.05;;
14272;SDS011;7220;49.450;11.052;2022-08-01T04:48:27;5.03;;;3.03;;
14272;SDS011;7220;49.450;11.052;2022-08-01T04:52:33;4.57;;;2.50;;
14272;SDS011;7220;49.450;11.052;2022-08-01T04:56:37;3.55;;;2.78;;
14272;SDS011;7220;49.450;11.052;2022-08-01T05:00:37;4.50;;;3.05;;
14272;SDS011;7220;49.450;11.052;2022-08-01T05:04:38;3.55;;;2.78;;
14272;SDS011;7220;49.450;11.052;2022-08-01T05:08:39;3.67;;;3.33;;
14272;SDS011;7220;49.450;11.052;2022-08-01T05:12:41;3.30;;;2.97;;
14272;SDS011;7220;49.450;11.052;2022-08-01T05:16:41;3.45;;;3.03;;
14272;SDS011;7220;49.450;11.052;2022-08-01T05:20:42;4.00;;;3.03;;
14272;SDS011;7220;49.450;11.052;2022-08-01T05:24:42;6.60;;;3.38;;
14272;SDS011;7220;49.450;11.052;2022-08-01T05:28:43;8.50;;;4.25;;
14272;SDS011;7220;49.450;11.052;2022-08-01T05:32:43;5.72;;;3.20;;
14272;SDS011;7220;49.450;11.052;2022-08-01T05:36:44;4.70;;;3.53;;
14272;SDS011;7220;49.450;11.052;2022-08-01T05:40:44;4.80;;;3.60;;
14272;SDS011;7220;49.450;11.052;2022-08-01T05:44:45;7.30;;;3.35;;
14272;SDS011;7220;49.450;11.052;2022-08-01T05:48:45;3.65;;;3.33;;
14272;SDS011;7220;49.450;11.052;2022-08-01T05:52:45;3.05;;;2.80;;
14272;SDS011;7220;49.450;11.052;2022-08-01T05:56:46;4.15;;;2.65;;
14272;SDS011;7220;49.450;11.052;2022-08-01T06:00:46;2.85;;;2.65;;
14272;SDS011;7220;49.450;11.052;2022-08-01T06:04:47;4.63;;;3.13;;
14272;SDS011;7220;49.450;11.052;2022-08-01T06:08:47;2.95;;;2.75;;
14272;SDS011;7220;49.450;11.052;2022-08-01T06:12:48;4.10;;;2.45;;
14272;SDS011;7220;49.450;11.052;2022-08-01T06:16:48;3.83;;;2.40;;
14272;SDS011;7220;49.450;11.052;2022-08-01T06:20:48;2.80;;;2.58;;
14272;SDS011;7220;49.450;11.052;2022-08-01T06:24:49;3.03;;;2.33;;
14272;SDS011;7220;49.450;11.052;2022-08-01T06:28:49;2.85;;;2.30;;
14272;SDS011;7220;49.450;11.052;2022-08-01T06:32:50;3.88;;;2.67;;
14272;SDS011;7220;49.450;11.052;2022-08-01T06:36:50;2.50;;;2.30;;
14272;SDS011;7220;49.450;11.052;2022-08-01T06:40:51;3.55;;;2.42;;
14272;SDS011;7220;49.450;11.052;2022-08-01T06:44:51;3.10;;;2.53;;
14272;SDS011;7220;49.450;11.052;2022-08-01T06:48:51;4.03;;;2.60;;
14272;SDS011;7220;49.450;11.052;2022-08-01T06:52:52;3.55;;;2.60;;
14272;SDS011;7220;49.450;11.052;2022-08-01T06:56:52;2.53;;;2.33;;
14272;SDS011;7220;49.450;11.052;2022-08-01T07:00:53;3.00;;;2.38;;
14272;SDS011;7220;49.450;11.052;2022-08-01T07:04:53;3.55;;;2.33;;
14272;SDS011;7220;49.450;11.052;2022-08-01T07:08:54;4.43;;;2.90;;
14272;SDS011;7220;49.450;11.052;2022-08-01T07:12:54;2.97;;;2.70;;
14272;SDS011;7220;49.450;11.052;2022-08-01T07:16:55;3.45;;;2.58;;
14272;SDS011;7220;49.450;11.052;2022-08-01T07:20:55;3.33;;;2.50;;
14272;SDS011;7220;49.450;11.052;2022-08-01T07:24:57;3.53;;;2.30;;
14272;SDS011;7220;49.450;11.052;2022-08-01T07:28:57;2.55;;;2.17;;
14272;SDS011;7220;49.450;11.052;2022-08-01T07:32:58;2.47;;;2.20;;
14272;SDS011;7220;49.450;11.052;2022-08-01T07:36:59;2.50;;;2.30;;
14272;SDS011;7220;49.450;11.052;2022-08-01T07:40:59;2.25;;;2.05;;
14272;SDS011;7220;49.450;11.052;2022-08-01T07:45:00;2.33;;;2.13;;
14272;SDS011;7220;49.450;11.052;2022-08-01T07:49:00;2.53;;;2.00;;
14272;SDS011;7220;49.450;11.052;2022-08-01T07:53:01;2.60;;;2.40;;
14272;SDS011;7220;49.450;11.052;2022-08-01T07:57:02;2.58;;;2.15;;
14272;SDS011;7220;49.450;11.052;2022-08-01T08:01:03;3.33;;;2.17;;
14272;SDS011;7220;49.450;11.052;2022-08-01T08:05:03;2.92;;;2.10;;
14272;SDS011;7220;49.450;11.052;2022-08-01T08:09:05;2.47;;;2.28;;
14272;SDS011;7220;49.450;11.052;2022-08-01T08:13:06;2.83;;;2.03;;
14272;SDS011;7220;49.450;11.052;2022-08-01T08:17:07;2.40;;;2.20;;
14272;SDS011;7220;49.450;11.052;2022-08-01T08:21:07;2.70;;;2.15;;
14272;SDS011;7220;49.450;11.052;2022-08-01T08:25:08;3.40;;;2.20;;
14272;SDS011;7220;49.450;11.052;2022-08-01T08:29:08;2.78;;;2.00;;
14272;SDS011;7220;49.450;11.052;2022-08-01T08:33:09;3.67;;;2.47;;
14272;SDS011;7220;49.450;11.052;2022-08-01T08:37:09;3.22;;;2.70;;
14272;SDS011;7220;49.450;11.052;2022-08-01T08:41:10;3.25;;;2.30;;
14272;SDS011;7220;49.450;11.052;2022-08-01T08:45:10;2.13;;;2.03;;
14272;SDS011;7220;49.450;11.052;2022-08-01T08:49:12;1.95;;;1.73;;
14272;SDS011;7220;49.450;11.052;2022-08-01T08:53:17;2.10;;;1.90;;
14272;SDS011;7220;49.450;11.052;2022-08-01T08:57:19;5.30;;;1.85;;
14272;SDS011;7220;49.450;11.052;2022-08-01T09:01:20;4.53;;;2.30;;
14272;SDS011;7220;49.450;11.052;2022-08-01T09:05:22;3.13;;;1.90;;
14272;SDS011;7220;49.450;11.052;2022-08-01T09:09:26;6.38;;;2.10;;
14272;SDS011;7220;49.450;11.052;2022-08-01T09:13:28;4.95;;;2.08;;
14272;SDS011;7220;49.450;11.052;2022-08-01T09:17:38;3.67;;;2.30;;
14272;SDS011;7220;49.450;11.052;2022-08-01T09:21:40;1.90;;;1.80;;
14272;SDS011;7220;49.450;11.052;2022-08-01T09:25:56;2.42;;;1.80;;
14272;SDS011;7220;49.450;11.052;2022-08-01T09:30:06;2.55;;;2.13;;
14272;SDS011;7220;49.450;11.052;2022-08-01T09:34:10;2.30;;;1.77;;
14272;SDS011;7220;49.450;11.052;2022-08-01T09:38:20;1.73;;;1.63;;
14272;SDS011;7220;49.450;11.052;2022-08-01T09:42:22;1.95;;;1.70;;
14272;SDS011;7220;49.450;11.052;2022-08-01T09:46:26;2.20;;;1.90;;
14272;SDS011;7220;49.450;11.052;2022-08-01T09:50:28;2.35;;;1.80;;
14272;SDS011;7220;49.450;11.052;2022-08-01T09:54:39;2.80;;;1.80;;
14272;SDS011;7220;49.450;11.052;2022-08-01T10:02:57;3.78;;;1.42;;
14272;SDS011;7220;49.450;11.052;2022-08-01T10:07:03;1.70;;;1.60;;
14272;SDS011;7220;49.450;11.052;2022-08-01T10:11:09;2.40;;;1.88;;
14272;SDS011;7220;49.450;11.052;2022-08-01T10:15:13;1.40;;;1.30;;
14272;SDS011;7220;49.450;11.052;2022-08-01T10:19:16;2.88;;;1.60;;
14272;SDS011;7220;49.450;11.052;2022-08-01T10:23:18;1.98;;;1.50;;
14272;SDS011;7220;49.450;11.052;2022-08-01T10:27:19;1.90;;;1.40;;
14272;SDS011;7220;49.450;11.052;2022-08-01T10:31:20;1.40;;;1.30;;
14272;SDS011;7220;49.450;11.052;2022-08-01T10:35:21;3.85;;;1.70;;
14272;SDS011;7220;49.450;11.052;2022-08-01T10:39:22;1.35;;;1.20;;
14272;SDS011;7220;49.450;11.052;2022-08-01T10:43:23;1.90;;;1.77;;
14272;SDS011;7220;49.450;11.052;2022-08-01T10:47:27;3.17;;;1.70;;
14272;SDS011;7220;49.450;11.052;2022-08-01T10:51:59;1.50;;;1.40;;
14272;SDS011;7220;49.450;11.052;2022-08-01T10:56:00;2.90;;;1.70;;
14272;SDS011;7220;49.450;11.052;2022-08-01T11:00:03;3.50;;;1.50;;
14272;SDS011;7220;49.450;11.052;2022-08-01T11:08:12;1.77;;;1.30;;
14272;SDS011;7220;49.450;11.052;2022-08-01T11:12:22;1.33;;;1.23;;
14272;SDS011;7220;49.450;11.052;2022-08-01T11:16:39;1.55;;;1.45;;
14272;SDS011;7220;49.450;11.052;2022-08-01T11:20:43;3.13;;;1.77;;
14272;SDS011;7220;49.450;11.052;2022-08-01T11:24:57;1.58;;;1.45;;
14272;SDS011;7220;49.450;11.052;2022-08-01T11:29:11;1.55;;;1.40;;
14272;SDS011;7220;49.450;11.052;2022-08-01T11:33:17;1.60;;;1.50;;
14272;SDS011;7220;49.450;11.052;2022-08-01T11:37:23;1.60;;;1.50;;
14272;SDS011;7220;49.450;11.052;2022-08-01T11:41:26;1.33;;;1.23;;
14272;SDS011;7220;49.450;11.052;2022-08-01T11:49:56;1.88;;;1.45;;
14272;SDS011;7220;49.450;11.052;2022-08-01T11:53:57;2.65;;;1.35;;
14272;SDS011;7220;49.450;11.052;2022-08-01T11:58:05;1.80;;;1.67;;
14272;SDS011;7220;49.450;11.052;2022-08-01T12:06:28;1.65;;;1.50;;
14272;SDS011;7220;49.450;11.052;2022-08-01T12:10:30;1.98;;;1.77;;
14272;SDS011;7220;49.450;11.052;2022-08-01T12:14:36;1.60;;;1.50;;
14272;SDS011;7220;49.450;11.052;2022-08-01T12:18:40;4.35;;;1.67;;
14272;SDS011;7220;49.450;11.052;2022-08-01T12:22:41;2.97;;;1.52;;
14272;SDS011;7220;49.450;11.052;2022-08-01T12:26:43;3.67;;;1.33;;
14272;SDS011;7220;49.450;11.052;2022-08-01T12:30:43;1.67;;;1.50;;
14272;SDS011;7220;49.450;11.052;2022-08-01T12:34:48;1.58;;;1.48;;
14272;SDS011;7220;49.450;11.052;2022-08-01T12:38:52;2.75;;;1.77;;
14272;SDS011;7220;49.450;11.052;2022-08-01T12:42:56;1.58;;;1.48;;
14272;SDS011;7220;49.450;11.052;2022-08-01T12:46:58;1.50;;;1.40;;
14272;SDS011;7220;49.450;11.052;2022-08-01T12:51:02;1.45;;;1.35;;
14272;SDS011;7220;49.450;11.052;2022-08-01T12:55:07;1.48;;;1.30;;
14272;SDS011;7220;49.450;11.052;2022-08-01T12:59:19;1.30;;;1.20;;
14272;SDS011;7220;49.450;11.052;2022-08-01T13:03:24;2.30;;;1.25;;
14272;SDS011;7220;49.450;11.052;2022-08-01T13:07:38;1.38;;;1.27;;
14272;SDS011;7220;49.450;11.052;2022-08-01T13:11:46;1.73;;;1.40;;
14272;SDS011;7220;49.450;11.052;2022-08-01T13:15:47;1.73;;;1.63;;
14272;SDS011;7220;49.450;11.052;2022-08-01T13:20:02;1.83;;;1.58;;
14272;SDS011;7220;49.450;11.052;2022-08-01T13:28:19;1.88;;;1.73;;
14272;SDS011;7220;49.450;11.052;2022-08-01T13:32:24;2.25;;;1.70;;
14272;SDS011;7220;49.450;11.052;2022-08-01T13:36:24;1.85;;;1.75;;
14272;SDS011;7220;49.450;11.052;2022-08-01T13:40:27;2.20;;;2.00;;
14272;SDS011;7220;49.450;11.052;2022-08-01T13:44:27;2.45;;;1.58;;
14272;SDS011;7220;49.450;11.052;2022-08-01T13:48:28;1.63;;;1.52;;
14272;SDS011;7220;49.450;11.052;2022-08-01T13:52:28;1.90;;;1.70;;
14272;SDS011;7220;49.450;11.052;2022-08-01T13:56:30;2.55;;;1.92;;
14272;SDS011;7220;49.450;11.052;2022-08-01T14:04:51;2.03;;;1.92;;
14272;SDS011;7220;49.450;11.052;2022-08-01T14:08:52;1.90;;;1.80;;
14272;SDS011;7220;49.450;11.052;2022-08-01T14:12:52;1.50;;;1.40;;
14272;SDS011;7220;49.450;11.052;2022-08-01T14:16:53;1.15;;;1.10;;
14272;SDS011;7220;49.450;11.052;2022-08-01T14:20:53;2.15;;;1.50;;
14272;SDS011;7220;49.450;11.052;2022-08-01T14:24:54;1.70;;;1.38;;
14272;SDS011;7220;49.450;11.052;2022-08-01T14:28:54;1.20;;;1.10;;
14272;SDS011;7220;49.450;11.052;2022-08-01T14:32:55;1.40;;;1.30;;
14272;SDS011;7220;49.450;11.052;2022-08-01T14:36:55;1.50;;;1.17;;
14272;SDS011;7220;49.450;11.052;2022-08-01T14:40:56;1.73;;;1.30;;
14272;SDS011;7220;49.450;11.052;2022-08-01T14:44:56;2.20;;;1.25;;
14272;SDS011;7220;49.450;11.052;2022-08-01T14:48:57;2.20;;;2.03;;
14272;SDS011;7220;49.450;11.052;2022-08-01T14:52:57;2.65;;;1.48;;
14272;SDS011;7220;49.450;11.052;2022-08-01T14:56:58;1.60;;;1.23;;
14272;SDS011;7220;49.450;11.052;2022-08-01T15:00:59;1.95;;;1.83;;
14272;SDS011;7220;49.450;11.052;2022-08-01T15:05:00;1.40;;;1.30;;
14272;SDS011;7220;49.450;11.052;2022-08-01T15:09:00;2.30;;;2.03;;
14272;SDS011;7220;49.450;11.052;2022-08-01T15:13:01;2.63;;;1.38;;
14272;SDS011;7220;49.450;11.052;2022-08-01T15:17:02;2.50;;;1.30;;
14272;SDS011;7220;49.450;11.052;2022-08-01T15:21:02;1.23;;;1.17;;
14272;SDS011;7220;49.450;11.052;2022-08-01T15:25:03;3.15;;;1.20;;
14272;SDS011;7220;49.450;11.052;2022-08-01T15:29:04;1.70;;;1.38;;
14272;SDS011;7220;49.450;11.052;2022-08-01T15:33:04;1.30;;;1.17;;
14272;SDS011;7220;49.450;11.052;2022-08-01T15:37:05;1.30;;;1.20;;
14272;SDS011;7220;49.450;11.052;2022-08-01T15:41:06;1.10;;;1.10;;
14272;SDS011;7220;49.450;11.052;2022-08-01T15:45:07;1.45;;;1.10;;
14272;SDS011;7220;49.450;11.052;2022-08-01T15:49:08;1.17;;;1.10;;
14272;SDS011;7220;49.450;11.052;2022-08-01T15:53:08;1.35;;;1.20;;
14272;SDS011;7220;49.450;11.052;2022-08-01T15:57:08;1.50;;;1.40;;
14272;SDS011;7220;49.450;11.052;2022-08-01T16:01:09;1.80;;;1.50;;
14272;SDS011;7220;49.450;11.052;2022-08-01T16:05:09;3.20;;;1.65;;
14272;SDS011;7220;49.450;11.052;2022-08-01T16:09:10;1.95;;;1.58;;
14272;SDS011;7220;49.450;11.052;2022-08-01T16:13:11;2.90;;;1.63;;
14272;SDS011;7220;49.450;11.052;2022-08-01T16:17:11;1.90;;;1.67;;
14272;SDS011;7220;49.450;11.052;2022-08-01T16:21:12;2.38;;;1.70;;
14272;SDS011;7220;49.450;11.052;2022-08-01T16:25:12;2.10;;;1.70;;
14272;SDS011;7220;49.450;11.052;2022-08-01T16:29:13;1.98;;;1.67;;
14272;SDS011;7220;49.450;11.052;2022-08-01T16:33:14;3.60;;;1.85;;
14272;SDS011;7220;49.450;11.052;2022-08-01T16:37:14;1.80;;;1.70;;
14272;SDS011;7220;49.450;11.052;2022-08-01T16:41:15;1.90;;;1.80;;
14272;SDS011;7220;49.450;11.052;2022-08-01T16:45:15;1.83;;;1.70;;
14272;SDS011;7220;49.450;11.052;2022-08-01T16:49:20;2.20;;;2.00;;
14272;SDS011;7220;49.450;11.052;2022-08-01T16:53:20;2.20;;;2.00;;
14272;SDS011;7220;49.450;11.052;2022-08-01T16:57:22;2.10;;;2.00;;
14272;SDS011;7220;49.450;11.052;2022-08-01T17:01:22;2.00;;;1.90;;
14272;SDS011;7220;49.450;11.052;2022-08-01T17:05:24;2.38;;;2.00;;
14272;SDS011;7220;49.450;11.052;2022-08-01T17:09:25;1.80;;;1.70;;
14272;SDS011;7220;49.450;11.052;2022-08-01T17:13:26;2.50;;;2.25;;
14272;SDS011;7220;49.450;11.052;2022-08-01T17:17:26;2.50;;;2.17;;
14272;SDS011;7220;49.450;11.052;2022-08-01T17:21:27;2.95;;;1.83;;
14272;SDS011;7220;49.450;11.052;2022-08-01T17:25:28;2.22;;;1.88;;
14272;SDS011;7220;49.450;11.052;2022-08-01T17:29:28;1.90;;;1.80;;
14272;SDS011;7220;49.450;11.052;2022-08-01T17:33:29;2.33;;;2.13;;
14272;SDS011;7220;49.450;11.052;2022-08-01T17:37:29;1.90;;;1.80;;
14272;SDS011;7220;49.450;11.052;2022-08-01T17:41:30;2.30;;;2.00;;
14272;SDS011;7220;49.450;11.052;2022-08-01T17:45:30;2.22;;;2.03;;
14272;SDS011;7220;49.450;11.052;2022-08-01T17:49:31;2.30;;;2.10;;
14272;SDS011;7220;49.450;11.052;2022-08-01T17:53:31;1.90;;;1.80;;
14272;SDS011;7220;49.450;11.052;2022-08-01T17:57:32;2.40;;;2.20;;
14272;SDS011;7220;49.450;11.052;2022-08-01T18:01:33;2.75;;;2.55;;
14272;SDS011;7220;49.450;11.052;2022-08-01T18:05:34;2.63;;;2.42;;
14272;SDS011;7220;49.450;11.052;2022-08-01T18:09:36;3.13;;;2.40;;
14272;SDS011;7220;49.450;11.052;2022-08-01T18:13:36;3.40;;;2.50;;
14272;SDS011;7220;49.450;11.052;2022-08-01T18:17:36;3.17;;;2.78;;
14272;SDS011;7220;49.450;11.052;2022-08-01T18:21:37;2.60;;;2.40;;
14272;SDS011;7220;49.450;11.052;2022-08-01T18:25:37;2.95;;;2.55;;
14272;SDS011;7220;49.450;11.052;2022-08-01T18:29:38;3.10;;;2.90;;
14272;SDS011;7220;49.450;11.052;2022-08-01T18:33:39;2.92;;;2.70;;
14272;SDS011;7220;49.450;11.052;2022-08-01T18:37:39;3.40;;;3.10;;
14272;SDS011;7220;49.450;11.052;2022-08-01T18:41:40;2.70;;;2.50;;
14272;SDS011;7220;49.450;11.052;2022-08-01T18:45:40;2.83;;;2.63;;
14272;SDS011;7220;49.450;11.052;2022-08-01T18:49:41;3.40;;;3.08;;
14272;SDS011;7220;49.450;11.052;2022-08-01T18:53:42;4.18;;;3.47;;
14272;SDS011;7220;49.450;11.052;2022-08-01T18:57:42;3.80;;;2.80;;
14272;SDS011;7220;49.450;11.052;2022-08-01T19:01:43;5.97;;;4.65;;
14272;SDS011;7220;49.450;11.052;2022-08-01T19:05:43;3.75;;;3.45;;
14272;SDS011;7220;49.450;11.052;2022-08-01T19:09:44;3.55;;;3.10;;
14272;SDS011;7220;49.450;11.052;2022-08-01T19:13:44;4.18;;;3.20;;
14272;SDS011;7220;49.450;11.052;2022-08-01T19:17:45;3.72;;;3.42;;
14272;SDS011;7220;49.450;11.052;2022-08-01T19:21:46;5.03;;;3.58;;
14272;SDS011;7220;49.450;11.052;2022-08-01T19:25:46;3.55;;;3.22;;
14272;SDS011;7220;49.450;11.052;2022-08-01T19:29:49;3.30;;;3.00;;
14272;SDS011;7220;49.450;11.052;2022-08-01T19:33:51;3.53;;;3.10;;
14272;SDS011;7220;49.450;11.052;2022-08-01T19:37:53;3.17;;;2.88;;
14272;SDS011;7220;49.450;11.052;2022-08-01T19:41:57;4.82;;;3.03;;
14272;SDS011;7220;49.450;11.052;2022-08-01T19:46:03;3.33;;;3.03;;
14272;SDS011;7220;49.450;11.052;2022-08-01T19:50:04;3.30;;;3.00;;
14272;SDS011;7220;49.450;11.052;2022-08-01T19:54:07;2.88;;;2.58;;
14272;SDS011;7220;49.450;11.052;2022-08-01T19:58:10;3.30;;;3.00;;
14272;SDS011;7220;49.450;11.052;2022-08-01T20:02:16;3.42;;;3.13;;
14272;SDS011;7220;49.450;11.052;2022-08-01T20:06:18;3.38;;;3.05;;
14272;SDS011;7220;49.450;11.052;2022-08-01T20:10:19;3.35;;;3.05;;
14272;SDS011;7220;49.450;11.052;2022-08-01T20:14:20;3.22;;;2.92;;
14272;SDS011;7220;49.450;11.052;2022-08-01T20:18:23;3.65;;;3.22;;
14272;SDS011;7220;49.450;11.052;2022-08-01T20:22:24;4.38;;;3.63;;
14272;SDS011;7220;49.450;11.052;2022-08-01T20:26:31;3.92;;;3.58;;
14272;SDS011;7220;49.450;11.052;2022-08-01T20:30:33;3.75;;;3.45;;
14272;SDS011;7220;49.450;11.052;2022-08-01T20:34:34;3.53;;;2.83;;
14272;SDS011;7220;49.450;11.052;2022-08-01T20:38:39;3.50;;;3.28;;
14272;SDS011;7220;49.450;11.052;2022-08-01T20:42:40;3.70;;;3.40;;
14272;SDS011;7220;49.450;11.052;2022-08-01T20:46:42;3.53;;;3.22;;
14272;SDS011;7220;49.450;11.052;2022-08-01T20:50:44;4.20;;;3.80;;
14272;SDS011;7220;49.450;11.052;2022-08-01T20:55:04;4.22;;;3.00;;
14272;SDS011;7220;49.450;11.052;2022-08-01T20:59:05;3.63;;;3.33;;
14272;SDS011;7220;49.450;11.052;2022-08-01T21:03:18;3.53;;;3.22;;
14272;SDS011;7220;49.450;11.052;2022-08-01T21:07:23;4.18;;;3.22;;
14272;SDS011;7220;49.450;11.052;2022-08-01T21:11:26;3.47;;;3.17;;
14272;SDS011;7220;49.450;11.052;2022-08-01T21:15:42;4.20;;;3.80;;
14272;SDS011;7220;49.450;11.052;2022-08-01T21:19:48;4.75;;;4.03;;
14272;SDS011;7220;49.450;11.052;2022-08-01T21:23:54;4.88;;;4.47;;
14272;SDS011;7220;49.450;11.052;2022-08-01T21:28:02;5.28;;;4.10;;
14272;SDS011;7220;49.450;11.052;2022-08-01T21:32:03;3.83;;;3.53;;
14272;SDS011;7220;49.450;11.052;2022-08-01T21:36:16;3.78;;;3.47;;
14272;SDS011;7220;49.450;11.052;2022-08-01T21:40:20;4.10;;;3.70;;
14272;SDS011;7220;49.450;11.052;2022-08-01T21:44:23;3.97;;;3.65;;
14272;SDS011;7220;49.450;11.052;2022-08-01T21:48:24;3.67;;;3.38;;
14272;SDS011;7220;49.450;11.052;2022-08-01T21:52:25;6.22;;;3.33;;
14272;SDS011;7220;49.450;11.052;2022-08-01T22:00:44;6.10;;;3.90;;
14272;SDS011;7220;49.450;11.052;2022-08-01T22:04:55;5.20;;;4.20;;
14272;SDS011;7220;49.450;11.052;2022-08-01T22:09:02;3.28;;;3.03;;
14272;SDS011;7220;49.450;11.052;2022-08-01T22:13:04;3.75;;;3.35;;
14272;SDS011;7220;49.450;11.052;2022-08-01T22:17:05;4.32;;;3.90;;
14272;SDS011;7220;49.450;11.052;2022-08-01T22:21:07;4.80;;;3.60;;
14272;SDS011;7220;49.450;11.052;2022-08-01T22:25:09;4.00;;;3.63;;
14272;SDS011;7220;49.450;11.052;2022-08-01T22:29:10;4.18;;;3.38;;
14272;SDS011;7220;49.450;11.052;2022-08-01T22:33:12;3.92;;;3.63;;
14272;SDS011;7220;49.450;11.052;2022-08-01T22:37:14;4.75;;;3.50;;
14272;SDS011;7220;49.450;11.052;2022-08-01T22:41:15;4.18;;;3.50;;
14272;SDS011;7220;49.450;11.052;2022-08-01T22:49:39;4.10;;;3.40;;
14272;SDS011;7220;49.450;11.052;2022-08-01T22:53:51;4.10;;;3.70;;
14272;SDS011;7220;49.450;11.052;2022-08-01T22:58:00;3.47;;;3.17;;
14272;SDS011;7220;49.450;11.052;2022-08-01T23:02:02;4.00;;;3.63;;
14272;SDS011;7220;49.450;11.052;2022-08-01T23:06:10;3.60;;;3.30;;
14272;SDS011;7220;49.450;11.052;2022-08-01T23:10:13;4.88;;;3.85;;
14272;SDS011;7220;49.450;11.052;2022-08-01T23:14:14;3.90;;;3.50;;
14272;SDS011;7220;49.450;11.052;2022-08-01T23:18:16;6.47;;;4.20;;
14272;SDS011;7220;49.450;11.052;2022-08-01T23:22:19;4.28;;;3.88;;
14272;SDS011;7220;49.450;11.052;2022-08-01T23:26:21;4.43;;;3.95;;
14272;SDS011;7220;49.450;11.052;2022-08-01T23:30:23;5.13;;;4.00;;
14272;SDS011;7220;49.450;11.052;2022-08-01T23:34:26;4.65;;;4.07;;
14272;SDS011;7220;49.450;11.052;2022-08-01T23:38:27;4.50;;;4.10;;
14272;SDS011;7220;49.450;11.052;2022-08-01T23:42:27;4.38;;;3.97;;
14272;SDS011;7220;49.450;11.052;2022-08-01T23:46:28;4.60;;;4.07;;
14272;SDS011;7220;49.450;11.052;2022-08-01T23:50:28;4.47;;;4.07;;
14272;SDS011;7220;49.450;11.052;2022-08-01T23:54:29;4.25;;;3.95;;
14272;SDS011;7220;49.450;11.052;2022-08-01T23:58:29;5.18;;;3.75;;
